createdAt,value
2019-06-08T00:00:28.103Z,7.97
2019-06-08T00:02:56.680Z,11.50
2019-06-08T00:05:49.190Z,11.77
2019-06-08T00:08:19.193Z,13.43
2019-06-08T00:10:50.591Z,14.90
2019-06-08T00:13:19.789Z,18.37
2019-06-08T00:15:48.407Z,22.03
2019-06-08T00:18:17.342Z,8.50
2019-06-08T00:20:45.999Z,9.17
2019-06-08T00:23:15.706Z,10.47
2019-06-08T00:25:44.299Z,10.97
2019-06-08T00:28:14.083Z,17.20
2019-06-08T00:30:42.701Z,10.10
2019-06-08T00:33:11.216Z,10.50
2019-06-08T00:35:45.931Z,7.00
2019-06-08T00:38:11.849Z,6.70
2019-06-08T00:40:45.224Z,6.90
2019-06-08T00:43:15.046Z,9.40
2019-06-08T00:45:43.692Z,6.60
2019-06-08T00:48:12.155Z,12.67
2019-06-08T00:50:43.407Z,9.17
2019-06-08T00:53:11.856Z,9.77
2019-06-08T00:55:43.786Z,15.17
2019-06-08T00:58:12.310Z,12.40
2019-06-08T01:00:53.997Z,8.93
2019-06-08T01:03:23.749Z,10.43
2019-06-08T01:05:55.592Z,10.30
2019-06-08T01:08:25.443Z,17.63
2019-06-08T01:10:54.081Z,11.70
2019-06-08T01:13:22.942Z,13.73
2019-06-08T01:15:51.511Z,8.00
2019-06-08T01:18:22.200Z,12.33
2019-06-08T01:20:50.244Z,11.80
2019-06-08T01:23:19.457Z,16.50
2019-06-08T01:25:48.047Z,17.23
2019-06-08T01:28:16.566Z,15.50
2019-06-08T01:30:45.035Z,15.70
2019-06-08T01:33:13.506Z,12.27
2019-06-08T01:35:41.963Z,9.47
2019-06-08T01:38:10.426Z,12.67
2019-06-08T01:40:43.374Z,8.97
2019-06-08T01:43:12.355Z,12.73
2019-06-08T01:45:40.826Z,15.40
2019-06-08T01:48:19.903Z,12.40
2019-06-08T01:50:43.817Z,11.23
2019-06-08T01:53:12.279Z,18.13
2019-06-08T01:55:40.734Z,14.23
2019-06-08T01:58:09.202Z,15.90
2019-06-08T02:00:42.323Z,15.93
2019-06-08T02:03:11.575Z,12.17
2019-06-08T02:05:40.092Z,8.90
2019-06-08T02:08:08.551Z,7.77
2019-06-08T02:10:44.664Z,15.60
2019-06-08T02:13:13.302Z,16.50
2019-06-08T02:15:46.771Z,15.57
2019-06-08T02:18:15.544Z,11.80
2019-06-08T02:20:49.254Z,13.77
2019-06-08T02:23:17.707Z,17.40
2019-06-08T02:25:46.157Z,12.40
2019-06-08T02:28:14.704Z,14.03
2019-06-08T02:30:43.249Z,14.33
2019-06-08T02:33:11.771Z,9.47
2019-06-08T02:35:41.863Z,11.20
2019-06-08T02:38:10.504Z,8.80
2019-06-08T02:40:40.220Z,14.73
2019-06-08T02:43:09.142Z,11.80
2019-06-08T02:45:39.924Z,11.40
2019-06-08T02:48:08.084Z,12.87
2019-06-08T02:50:54.621Z,13.80
2019-06-08T02:53:24.304Z,11.93
2019-06-08T02:55:52.960Z,15.53
2019-06-08T02:58:21.618Z,17.93
2019-06-08T03:00:52.831Z,19.00
2019-06-08T03:03:21.530Z,14.00
2019-06-08T03:05:50.940Z,15.20
2019-06-08T03:08:20.324Z,11.43
2019-06-08T03:10:52.728Z,10.03
2019-06-08T03:13:22.651Z,11.13
2019-06-08T03:15:51.116Z,13.40
2019-06-08T03:18:19.656Z,13.43
2019-06-08T03:20:49.728Z,15.97
2019-06-08T03:23:18.188Z,19.53
2019-06-08T03:25:52.789Z,12.83
2019-06-08T03:28:16.848Z,10.90
2019-06-08T03:30:53.220Z,11.23
2019-06-08T03:33:15.572Z,20.10
2019-06-08T03:35:56.008Z,9.50
2019-06-08T03:38:16.925Z,16.83
2019-06-08T03:40:45.472Z,14.93
2019-06-08T03:43:13.930Z,13.27
2019-06-08T03:45:43.612Z,9.83
2019-06-08T03:48:12.828Z,12.73
2019-06-08T03:50:42.051Z,10.60
2019-06-08T03:53:11.469Z,8.10
2019-06-08T03:55:40.899Z,8.20
2019-06-08T03:58:10.552Z,12.77
2019-06-08T04:00:42.391Z,7.93
2019-06-08T04:03:10.992Z,8.17
2019-06-08T04:05:40.756Z,12.53
2019-06-08T04:08:09.724Z,12.87
2019-06-08T04:10:39.709Z,10.97
2019-06-08T04:13:11.385Z,14.93
2019-06-08T04:15:40.278Z,14.50
2019-06-08T04:18:09.023Z,13.17
2019-06-08T04:20:37.993Z,8.80
2019-06-08T04:23:06.719Z,11.37
2019-06-08T04:25:42.530Z,16.13
2019-06-08T04:28:11.336Z,16.07
2019-06-08T04:30:41.065Z,9.63
2019-06-08T04:33:09.992Z,12.87
2019-06-08T04:35:42.806Z,12.53
2019-06-08T04:38:12.145Z,19.50
2019-06-08T04:40:41.597Z,7.47
2019-06-08T04:43:11.012Z,14.90
2019-06-08T04:45:45.833Z,11.07
2019-06-08T04:48:14.958Z,13.30
2019-06-08T04:50:45.304Z,8.57
2019-06-08T04:53:13.596Z,9.70
2019-06-08T04:55:43.437Z,12.27
2019-06-08T04:58:13.013Z,16.57
2019-06-08T05:00:50.321Z,11.50
2019-06-08T05:03:18.338Z,9.87
2019-06-08T05:05:47.651Z,10.93
2019-06-08T05:08:16.707Z,11.17
2019-06-08T05:10:52.580Z,9.97
2019-06-08T05:13:21.037Z,13.80
2019-06-08T05:15:50.288Z,12.20
2019-06-08T05:18:19.084Z,11.47
2019-06-08T05:20:51.435Z,14.03
2019-06-08T05:23:20.174Z,11.50
2019-06-08T05:25:49.364Z,11.30
2019-06-08T05:28:18.099Z,11.80
2019-06-08T05:30:51.544Z,11.50
2019-06-08T05:33:20.088Z,16.07
2019-06-08T05:35:49.680Z,19.20
2019-06-08T05:38:18.385Z,12.73
2019-06-08T05:40:51.244Z,10.77
2019-06-08T05:43:19.705Z,8.57
2019-06-08T05:45:48.407Z,8.80
2019-06-08T05:48:16.902Z,13.30
2019-06-08T05:51:00.427Z,13.37
2019-06-08T05:53:17.002Z,13.30
2019-06-08T05:55:46.121Z,9.60
2019-06-08T05:58:14.708Z,7.60
2019-06-08T06:00:44.202Z,9.33
2019-06-08T06:03:12.878Z,5.13
2019-06-08T06:05:42.479Z,6.60
2019-06-08T06:08:18.942Z,7.63
2019-06-08T06:10:42.784Z,7.17
2019-06-08T06:13:11.406Z,13.20
2019-06-08T06:18:32.195Z,18.63
2019-06-08T06:21:10.266Z,9.90
2019-06-08T06:23:31.192Z,11.90
2019-06-08T06:25:59.711Z,7.70
2019-06-08T06:28:28.175Z,10.37
2019-06-08T06:30:56.708Z,5.80
2019-06-08T06:33:25.155Z,8.67
2019-06-08T06:35:53.623Z,14.00
2019-06-08T06:38:22.069Z,9.40
2019-06-08T06:40:50.601Z,6.30
2019-06-08T06:43:19.056Z,12.80
2019-06-08T06:45:48.039Z,7.83
2019-06-08T06:48:16.607Z,11.90
2019-06-08T06:50:46.244Z,14.00
2019-06-08T06:53:15.043Z,5.93
2019-06-08T06:55:44.772Z,9.33
2019-06-08T06:58:13.346Z,10.50
2019-06-08T07:00:43.178Z,6.37
2019-06-08T07:03:11.739Z,4.43
2019-06-08T07:05:54.864Z,9.67
2019-06-08T07:08:23.332Z,10.87
2019-06-08T07:10:53.463Z,7.27
2019-06-08T07:13:22.143Z,8.00
2019-06-08T07:15:58.282Z,5.30
2019-06-08T07:18:27.006Z,21.70
2019-06-08T07:21:02.914Z,13.20
2019-06-08T07:23:31.373Z,14.30
2019-06-08T07:25:59.907Z,8.80
2019-06-08T07:28:28.364Z,8.00
2019-06-08T07:30:56.966Z,6.07
2019-06-08T07:33:25.492Z,7.77
2019-06-08T07:35:55.218Z,5.73
2019-06-08T07:38:23.871Z,7.03
2019-06-08T07:40:52.330Z,7.50
2019-06-08T07:43:20.784Z,13.13
2019-06-08T07:45:49.876Z,6.60
2019-06-08T07:48:18.403Z,7.77
2019-06-08T07:50:48.276Z,7.80
2019-06-08T07:53:16.970Z,13.50
2019-06-08T07:55:45.619Z,6.60
2019-06-08T07:58:14.184Z,11.80
2019-06-08T08:00:42.707Z,10.73
2019-06-08T08:03:11.299Z,6.87
2019-06-08T08:05:39.815Z,7.70
2019-06-08T08:08:08.277Z,5.50
2019-06-08T08:10:36.815Z,6.73
2019-06-08T08:13:05.357Z,7.37
2019-06-08T08:15:33.815Z,6.50
2019-06-08T08:18:02.348Z,9.27
2019-06-08T08:20:30.995Z,7.90
2019-06-08T08:23:05.565Z,9.27
2019-06-08T08:25:29.734Z,11.10
2019-06-08T08:28:00.690Z,6.37
2019-06-08T08:30:29.293Z,6.97
2019-06-08T08:33:01.733Z,10.20
2019-06-08T08:35:38.149Z,10.20
2019-06-08T08:38:07.582Z,7.40
2019-06-08T08:40:38.580Z,6.83
2019-06-08T08:43:06.666Z,15.23
2019-06-08T08:45:37.344Z,9.23
2019-06-08T08:48:21.526Z,10.53
2019-06-08T08:50:38.300Z,6.53
2019-06-08T08:53:08.372Z,10.53
2019-06-08T08:55:37.935Z,11.10
2019-06-08T08:58:08.371Z,5.43
2019-06-08T09:00:41.201Z,5.87
2019-06-08T09:03:25.249Z,6.90
2019-06-08T09:05:40.132Z,3.20
2019-06-08T09:08:08.810Z,8.30
2019-06-08T09:10:38.234Z,5.10
2019-06-08T09:13:09.286Z,13.50
2019-06-08T09:15:37.875Z,5.40
2019-06-08T09:18:08.107Z,6.03
2019-06-08T09:20:38.040Z,11.60
2019-06-08T09:23:14.886Z,6.70
2019-06-08T09:25:37.484Z,3.20
2019-06-08T09:28:08.408Z,9.23
2019-06-08T09:30:38.503Z,5.60
2019-06-08T09:33:07.967Z,6.63
2019-06-08T09:35:37.858Z,8.87
2019-06-08T09:38:08.535Z,11.83
2019-06-08T09:40:38.585Z,6.53
2019-06-08T09:43:12.401Z,6.13
2019-06-08T09:45:38.168Z,8.90
2019-06-08T09:48:09.268Z,6.80
2019-06-08T09:50:38.595Z,4.87
2019-06-08T09:53:23.074Z,3.90
2019-06-08T09:55:38.212Z,4.93
2019-06-08T09:58:11.482Z,9.73
2019-06-08T10:00:37.997Z,6.20
2019-06-08T10:03:09.266Z,6.60
2019-06-08T10:05:38.674Z,7.40
2019-06-08T10:08:09.269Z,4.37
2019-06-08T10:10:37.197Z,6.07
2019-06-08T10:13:09.338Z,4.97
2019-06-08T10:15:35.997Z,12.53
2019-06-08T10:18:05.006Z,3.67
2019-06-08T10:20:33.703Z,2.50
2019-06-08T10:23:05.084Z,6.60
2019-06-08T10:25:32.415Z,7.47
2019-06-08T10:28:07.829Z,4.23
2019-06-08T10:30:31.285Z,3.10
2019-06-08T10:33:02.130Z,12.33
2019-06-08T10:35:30.809Z,6.90
2019-06-08T10:38:02.788Z,4.27
2019-06-08T10:40:31.141Z,8.47
2019-06-08T10:43:01.415Z,7.67
2019-06-08T10:45:29.907Z,5.00
2019-06-08T10:48:00.814Z,7.87
2019-06-08T10:50:29.384Z,8.30
2019-06-08T10:53:02.138Z,4.40
2019-06-08T10:55:28.204Z,9.40
2019-06-08T10:57:58.011Z,11.47
2019-06-08T11:00:28.534Z,6.43
2019-06-08T11:03:01.310Z,7.43
2019-06-08T11:05:28.055Z,10.23
2019-06-08T11:07:59.349Z,4.10
2019-06-08T11:10:27.901Z,7.70
2019-06-08T11:12:58.225Z,6.27
2019-06-08T11:15:30.084Z,5.53
2019-06-08T11:18:02.229Z,8.50
2019-06-08T11:20:30.302Z,7.40
2019-06-08T11:23:00.732Z,13.53
2019-06-08T11:25:29.427Z,12.33
2019-06-08T11:27:58.672Z,9.37
2019-06-08T11:30:30.614Z,6.50
2019-06-08T11:32:59.815Z,4.10
2019-06-08T11:35:28.670Z,11.37
2019-06-08T11:37:58.472Z,12.43
2019-06-08T11:40:27.893Z,7.87
2019-06-08T11:42:58.461Z,5.40
2019-06-08T11:45:26.658Z,10.80
2019-06-08T11:47:55.177Z,6.00
2019-06-08T11:50:42.280Z,6.43
2019-06-08T11:53:14.267Z,5.93
2019-06-08T11:55:42.030Z,5.97
2019-06-08T11:58:13.563Z,6.07
2019-06-08T12:00:55.720Z,7.53
2019-06-08T12:03:24.266Z,10.03
2019-06-08T12:05:53.047Z,5.67
2019-06-08T12:08:21.811Z,11.03
2019-06-08T12:10:50.344Z,5.53
2019-06-08T12:13:18.879Z,10.23
2019-06-08T12:15:48.749Z,6.00
2019-06-08T12:18:18.254Z,11.33
2019-06-08T12:20:48.879Z,9.83
2019-06-08T12:23:17.227Z,8.93
2019-06-08T12:25:45.700Z,7.60
2019-06-08T12:28:14.741Z,8.33
2019-06-08T12:30:43.423Z,10.10
2019-06-08T12:33:12.695Z,10.03
2019-06-08T12:35:42.078Z,10.80
2019-06-08T12:38:11.512Z,10.90
2019-06-08T12:40:41.088Z,7.93
2019-06-08T12:43:11.675Z,9.27
2019-06-08T12:45:39.995Z,9.50
2019-06-08T12:48:14.139Z,13.10
2019-06-08T12:50:38.731Z,12.43
2019-06-08T12:53:11.246Z,8.30
2019-06-08T12:55:37.810Z,11.50
2019-06-08T12:58:08.530Z,12.00
2019-06-08T13:00:37.954Z,11.60
2019-06-08T13:03:08.640Z,12.73
2019-06-08T13:05:37.990Z,10.97
2019-06-08T13:08:09.742Z,6.60
2019-06-08T13:10:38.176Z,9.53
2019-06-08T13:13:08.478Z,9.67
2019-06-08T13:15:38.476Z,10.37
2019-06-08T13:18:09.881Z,8.47
2019-06-08T13:20:38.881Z,9.27
2019-06-08T13:23:08.716Z,15.57
2019-06-08T13:25:42.970Z,9.20
2019-06-08T13:28:13.044Z,7.80
2019-06-08T13:30:39.106Z,11.30
2019-06-08T13:33:08.122Z,9.53
2019-06-08T13:35:39.582Z,16.03
2019-06-08T13:38:08.670Z,12.87
2019-06-08T13:40:40.092Z,10.77
2019-06-08T13:43:08.190Z,10.83
2019-06-08T13:45:39.038Z,8.60
2019-06-08T13:48:08.928Z,13.60
2019-06-08T13:50:37.420Z,6.40
2019-06-08T13:53:05.860Z,9.87
2019-06-08T13:55:48.397Z,12.93
2019-06-08T13:58:04.640Z,7.17
2019-06-08T14:00:35.130Z,6.57
2019-06-08T14:03:08.242Z,7.60
2019-06-08T14:05:38.863Z,10.07
2019-06-08T14:08:10.566Z,17.20
2019-06-08T14:10:40.667Z,12.53
2019-06-08T14:13:09.411Z,14.40
2019-06-08T14:15:38.242Z,8.03
2019-06-08T14:18:08.849Z,11.50
2019-06-08T14:20:38.637Z,7.50
2019-06-08T14:23:09.210Z,9.30
2019-06-08T14:25:47.865Z,16.90
2019-06-08T14:28:08.271Z,8.00
2019-06-08T14:30:37.734Z,14.73
2019-06-08T14:33:08.233Z,8.60
2019-06-08T14:35:36.599Z,12.13
2019-06-08T14:38:05.043Z,8.47
2019-06-08T14:40:33.587Z,9.43
2019-06-08T14:43:02.114Z,5.97
2019-06-08T14:45:31.177Z,15.70
2019-06-08T14:47:59.777Z,12.47
2019-06-08T14:53:26.840Z,9.53
2019-06-08T14:56:07.511Z,5.63
2019-06-08T14:58:29.309Z,6.40
2019-06-08T15:00:57.881Z,7.93
2019-06-08T15:03:27.233Z,7.90
2019-06-08T15:05:57.638Z,9.10
2019-06-08T15:08:28.215Z,7.40
2019-06-08T15:10:58.196Z,7.57
2019-06-08T15:13:28.611Z,6.60
2019-06-08T15:16:00.394Z,8.20
2019-06-08T15:18:28.698Z,10.30
2019-06-08T15:20:58.128Z,4.30
2019-06-08T15:23:30.884Z,4.73
2019-06-08T15:25:58.254Z,5.90
2019-06-08T15:28:29.326Z,5.40
2019-06-08T15:30:59.893Z,5.60
2019-06-08T15:33:32.154Z,4.00
2019-06-08T15:35:57.625Z,8.27
2019-06-08T15:38:28.026Z,9.70
2019-06-08T15:40:57.647Z,9.90
2019-06-08T15:43:29.177Z,3.37
2019-06-08T15:45:59.132Z,4.00
2019-06-08T15:48:29.037Z,5.27
2019-06-08T15:50:58.397Z,3.73
2019-06-08T15:53:29.060Z,8.00
2019-06-08T15:55:58.385Z,6.03
2019-06-08T15:58:29.522Z,7.40
2019-06-08T16:00:57.179Z,3.33
2019-06-08T16:03:25.727Z,5.67
2019-06-08T16:05:54.247Z,9.33
2019-06-08T16:08:23.707Z,4.03
2019-06-08T16:10:52.235Z,6.13
2019-06-08T16:13:20.707Z,2.60
2019-06-08T16:15:49.171Z,3.90
2019-06-08T16:18:17.618Z,3.00
2019-06-08T16:20:46.155Z,9.43
2019-06-08T16:23:14.607Z,3.97
2019-06-08T16:25:43.139Z,2.43
2019-06-08T16:28:11.588Z,8.23
2019-06-08T16:30:40.051Z,4.60
2019-06-08T16:33:08.522Z,3.90
2019-06-08T16:35:36.976Z,4.03
2019-06-08T16:38:05.564Z,2.60
2019-06-08T16:40:34.300Z,2.90
2019-06-08T16:43:02.867Z,3.23
2019-06-08T16:45:31.348Z,4.13
2019-06-08T16:47:59.892Z,2.20
2019-06-08T16:50:28.498Z,3.03
2019-06-08T16:52:56.951Z,4.50
2019-06-08T16:55:25.510Z,2.23
2019-06-08T16:57:53.968Z,2.13
2019-06-08T17:00:32.298Z,4.60
2019-06-08T17:02:52.805Z,4.40
2019-06-08T17:05:21.312Z,13.10
2019-06-08T17:07:49.828Z,3.17
2019-06-08T17:10:18.427Z,4.03
2019-06-08T17:12:46.891Z,2.87
2019-06-08T17:15:16.082Z,4.67
2019-06-08T17:17:44.545Z,4.30
2019-06-08T17:20:13.531Z,3.43
2019-06-08T17:22:42.079Z,2.60
2019-06-08T17:25:10.793Z,4.90
2019-06-08T17:27:39.255Z,9.70
2019-06-08T17:30:08.956Z,3.63
2019-06-08T17:32:38.515Z,4.90
2019-06-08T17:35:08.313Z,2.20
2019-06-08T17:37:38.060Z,1.70
2019-06-08T17:40:07.515Z,5.03
2019-06-08T17:42:35.968Z,4.20
2019-06-08T17:45:07.455Z,1.60
2019-06-08T17:47:36.395Z,2.00
2019-06-08T17:50:08.486Z,1.77
2019-06-08T17:52:37.177Z,4.30
2019-06-08T17:55:07.518Z,2.53
2019-06-08T17:57:44.522Z,2.60
2019-06-08T18:00:08.382Z,5.70
2019-06-08T18:02:39.851Z,3.10
2019-06-08T18:05:08.216Z,5.07
2019-06-08T18:07:39.988Z,3.90
2019-06-08T18:10:07.325Z,1.73
2019-06-08T18:12:39.256Z,2.50
2019-06-08T18:15:07.877Z,2.67
2019-06-08T18:17:40.795Z,1.77
2019-06-08T18:20:17.723Z,2.77
2019-06-08T18:22:46.561Z,3.33
2019-06-08T18:25:17.446Z,1.87
2019-06-08T18:28:02.878Z,2.50
2019-06-08T18:30:18.989Z,4.27
2019-06-08T18:32:48.553Z,1.60
2019-06-08T18:35:18.253Z,2.23
2019-06-08T18:37:48.672Z,1.70
2019-06-08T18:40:18.052Z,1.73
2019-06-08T18:42:48.739Z,5.90
2019-06-08T18:45:18.436Z,1.87
2019-06-08T18:47:48.367Z,4.40
2019-06-08T18:50:17.767Z,2.93
2019-06-08T18:52:47.356Z,3.47
2019-06-08T18:55:18.219Z,2.97
2019-06-08T18:57:49.024Z,4.23
2019-06-08T19:00:19.643Z,1.73
2019-06-08T19:02:52.227Z,3.80
2019-06-08T19:05:21.377Z,3.20
2019-06-08T19:07:51.670Z,1.40
2019-06-08T19:10:33.550Z,2.30
2019-06-08T19:13:02.086Z,1.93
2019-06-08T19:15:39.878Z,5.23
2019-06-08T19:18:08.137Z,1.50
2019-06-08T19:20:40.696Z,3.30
2019-06-08T19:23:09.072Z,2.20
2019-06-08T19:25:42.117Z,3.13
2019-06-08T19:28:07.897Z,6.33
2019-06-08T19:30:39.246Z,4.10
2019-06-08T19:33:07.568Z,2.43
2019-06-08T19:35:38.791Z,1.70
2019-06-08T19:38:07.470Z,9.90
2019-06-08T19:40:37.930Z,3.93
2019-06-08T19:43:07.508Z,2.10
2019-06-08T19:45:39.117Z,7.27
2019-06-08T19:48:08.244Z,8.70
2019-06-08T19:50:38.600Z,2.37
2019-06-08T19:53:08.201Z,15.43
2019-06-08T19:55:37.226Z,9.27
2019-06-08T19:58:08.578Z,2.60
2019-06-08T20:00:40.067Z,1.90
2019-06-08T20:03:07.697Z,2.60
2019-06-08T20:05:37.783Z,1.50
2019-06-08T20:08:08.033Z,5.53
2019-06-08T20:10:37.109Z,3.97
2019-06-08T20:13:07.878Z,3.73
2019-06-08T20:15:40.686Z,3.27
2019-06-08T20:18:06.596Z,3.10
2019-06-08T20:20:35.044Z,7.10
2019-06-08T20:23:03.582Z,2.27
2019-06-08T20:25:32.298Z,6.80
2019-06-08T20:28:00.772Z,7.83
2019-06-08T20:30:29.227Z,3.23
2019-06-08T20:32:57.809Z,2.47
2019-06-08T20:35:28.039Z,3.40
2019-06-08T20:37:57.863Z,4.57
2019-06-08T20:40:27.903Z,1.87
2019-06-08T20:42:57.813Z,2.07
2019-06-08T20:45:28.056Z,1.80
2019-06-08T20:47:58.529Z,1.80
2019-06-08T20:50:27.182Z,4.37
2019-06-08T20:52:57.655Z,2.50
2019-06-08T20:55:28.021Z,1.63
2019-06-08T20:57:57.455Z,2.17
2019-06-08T21:00:26.284Z,3.37
2019-06-08T21:02:57.935Z,2.33
2019-06-08T21:05:27.605Z,1.80
2019-06-08T21:07:58.203Z,8.80
2019-06-08T21:10:27.967Z,2.23
2019-06-08T21:12:56.442Z,2.23
2019-06-08T21:15:27.430Z,2.17
2019-06-08T21:17:56.259Z,3.37
2019-06-08T21:20:28.123Z,3.17
2019-06-08T21:22:59.513Z,3.33
2019-06-08T21:25:28.036Z,1.60
2019-06-08T21:27:58.381Z,4.17
2019-06-08T21:30:28.479Z,2.20
2019-06-08T21:33:00.501Z,4.17
2019-06-08T21:35:26.992Z,2.87
2019-06-08T21:37:59.696Z,6.80
2019-06-08T21:40:27.978Z,1.63
2019-06-08T21:42:59.964Z,1.60
2019-06-08T21:45:27.586Z,2.10
2019-06-08T21:47:59.029Z,2.13
2019-06-08T21:50:27.602Z,2.10
2019-06-08T21:52:59.067Z,1.77
2019-06-08T21:55:27.319Z,3.50
2019-06-08T21:57:59.847Z,6.53
2019-06-08T22:00:38.765Z,3.30
2019-06-08T22:02:58.891Z,3.73
2019-06-08T22:05:27.100Z,2.60
2019-06-08T22:07:58.530Z,2.93
2019-06-08T22:10:26.932Z,3.17
2019-06-08T22:12:58.044Z,4.63
2019-06-08T22:15:27.157Z,4.50
2019-06-08T22:17:59.157Z,2.33
2019-06-08T22:20:27.376Z,3.57
2019-06-08T22:22:58.106Z,2.00
2019-06-08T22:25:27.862Z,10.50
2019-06-08T22:27:58.432Z,1.80
2019-06-08T22:30:38.321Z,1.70
2019-06-08T22:32:57.758Z,5.13
2019-06-08T22:35:27.600Z,3.43
2019-06-08T22:37:58.003Z,2.50
2019-06-08T22:40:28.100Z,3.10
2019-06-08T22:42:57.755Z,1.73
2019-06-08T22:45:28.177Z,5.10
2019-06-08T22:47:58.871Z,2.60
2019-06-08T22:50:27.521Z,2.63
2019-06-08T22:52:59.352Z,5.30
2019-06-08T22:55:27.800Z,2.53
2019-06-08T22:57:59.860Z,3.67
2019-06-08T23:00:27.932Z,1.70
2019-06-08T23:03:00.405Z,2.53
2019-06-08T23:05:27.889Z,2.90
2019-06-08T23:07:59.713Z,2.00
2019-06-08T23:10:26.687Z,2.43
2019-06-08T23:12:56.764Z,1.83
2019-06-08T23:15:25.339Z,1.97
2019-06-08T23:17:54.933Z,2.00
2019-06-08T23:20:23.956Z,2.20
2019-06-08T23:22:52.419Z,2.90
2019-06-08T23:25:21.138Z,2.67
2019-06-08T23:27:49.675Z,2.43
2019-06-08T23:30:18.701Z,3.30
2019-06-08T23:32:47.955Z,6.13
2019-06-08T23:35:18.188Z,2.20
2019-06-08T23:37:47.813Z,2.00
2019-06-08T23:40:17.882Z,3.43
2019-06-08T23:42:47.618Z,1.97
2019-06-08T23:45:17.674Z,2.53
2019-06-08T23:47:48.109Z,3.07
2019-06-08T23:50:18.132Z,2.80
2019-06-08T23:52:47.788Z,2.07
2019-06-08T23:55:18.177Z,2.00
2019-06-08T23:57:46.703Z,6.37
